Edwardsville, Alabama
Current Conditions -  °F | °C
As of 10:15 AM on Tuesday 21 Oct 2014 (Local Time) from KCTJ Reporting Station
Clear Clear  
Wind Chill: 18°   Ceiling: Unl
Heat Index: 18°   Visibility: 10mi
Dew Point: 12°   Wind: 5mph
Humidity: 68%   Direction: 300°WNW
Pressure: 30.06"   Gusts: NA
Location:  33.71°N, 85.51°W
Report Text: KCTJ 211515Z AUTO 30004KT 10SM CLR 18/12 A3006 RMK AO2
Loading
Personal Weather Stations






























Interactive Weather Map
Tropical Storm Tracking
New forecast layout! Learn more

10-Day Weather Forecast

Advertisements
Track Severe Weather on mobile